Time;durP1;ratioP1;P1;durP2;ratioP2;P2;SDS_P1;SDS_P2;PMS_P1;PMS_P2;Temp;Humidity;BMP_temperature;BMP_pressure;BME280_temperature;BME280_humidity;BME280_pressure;Samples;Min_cycle;Max_cycle;Signal;HPM_P1;HPM_P2
2021/08/06 00:01:30;;;;;;;18.32;8.33;;;;;;;23.22;61.10;99509.22;1678401;84;21068;-72
2021/08/06 00:03:56;;;;;;;9.63;8.25;;;;;;;23.12;61.40;99509.73;1656981;84;21834;-72
2021/08/06 00:06:27;;;;;;;10.58;8.15;;;;;;;23.05;61.67;99508.16;1689385;84;21013;-71
2021/08/06 00:08:54;;;;;;;13.13;9.10;;;;;;;22.99;61.98;99510.42;1680491;84;20997;-72
2021/08/06 00:11:27;;;;;;;12.93;8.85;;;;;;;22.89;62.26;99510.11;1684196;84;21040;-72
2021/08/06 00:13:54;;;;;;;9.70;8.63;;;;;;;22.81;62.56;99510.66;1690153;83;21024;-72
2021/08/06 00:16:22;;;;;;;15.18;8.85;;;;;;;22.77;62.75;99514.00;1680769;83;21048;-72
2021/08/06 00:18:50;;;;;;;9.75;8.60;;;;;;;22.73;62.91;99523.05;1686464;83;21089;-73
2021/08/06 00:21:17;;;;;;;10.72;8.58;;;;;;;22.73;63.10;99520.89;1676768;83;21439;-72
2021/08/06 00:23:46;;;;;;;13.58;9.05;;;;;;;22.73;63.28;99527.09;1705780;82;21372;-72
2021/08/06 00:26:13;;;;;;;13.05;9.88;;;;;;;22.72;63.43;99529.48;1710065;83;21021;-72
2021/08/06 00:28:41;;;;;;;16.62;9.53;;;;;;;22.71;63.60;99534.58;1709301;83;21799;-73
2021/08/06 00:31:07;;;;;;;13.75;9.73;;;;;;;22.72;63.76;99530.02;1701530;83;20953;-72
2021/08/06 00:33:34;;;;;;;13.75;10.05;;;;;;;22.71;63.89;99527.84;1703158;83;21015;-72
2021/08/06 00:36:03;;;;;;;12.70;10.18;;;;;;;22.71;64.04;99526.50;1670261;84;21221;-72
2021/08/06 00:38:30;;;;;;;11.03;9.20;;;;;;;22.69;64.14;99512.44;1673477;85;21534;-72
2021/08/06 00:40:57;;;;;;;14.10;10.23;;;;;;;22.69;64.31;99521.86;1693693;83;21838;-72
2021/08/06 00:43:24;;;;;;;16.27;10.38;;;;;;;22.67;64.40;99522.58;1725347;83;20988;-72
2021/08/06 00:45:51;;;;;;;13.70;10.43;;;;;;;22.66;64.55;99534.92;1749333;82;21005;-72
2021/08/06 00:48:21;;;;;;;16.55;11.35;;;;;;;22.62;64.68;99538.59;1702766;82;21066;-72
2021/08/06 00:50:50;;;;;;;14.78;10.60;;;;;;;22.60;64.82;99515.64;1704577;83;21059;-72
2021/08/06 00:53:17;;;;;;;17.80;10.75;;;;;;;22.59;64.93;99509.95;1730800;82;21790;-73
2021/08/06 00:55:45;;;;;;;20.80;11.00;;;;;;;22.57;65.02;99515.53;1724545;82;21405;-73
2021/08/06 00:58:13;;;;;;;15.25;10.88;;;;;;;22.57;65.07;99509.62;1708965;83;20989;-72
2021/08/06 01:00:41;;;;;;;14.33;10.82;;;;;;;22.56;65.16;99499.09;1700576;82;21056;-72
2021/08/06 01:03:23;;;;;;;14.05;10.85;;;;;;;22.53;65.31;99493.63;1706919;82;21103;-72
2021/08/06 01:06:07;;;;;;;17.55;11.05;;;;;;;22.49;65.44;99496.47;1717072;82;22597;-73
2021/08/06 01:08:46;;;;;;;17.05;11.00;;;;;;;22.47;65.52;99495.03;1673989;85;21070;-72
2021/08/06 01:11:14;;;;;;;13.50;10.90;;;;;;;22.41;65.70;99491.89;1684663;84;21003;-72
2021/08/06 01:13:53;;;;;;;16.12;12.00;;;;;;;22.38;65.85;99483.72;1693672;83;21047;-72
2021/08/06 01:16:21;;;;;;;16.75;11.55;;;;;;;22.36;65.98;99485.80;1683442;83;21020;-72
2021/08/06 01:18:54;;;;;;;22.67;11.75;;;;;;;22.34;66.09;99479.83;1712105;83;21872;-72
2021/08/06 01:21:22;;;;;;;15.75;12.15;;;;;;;22.34;66.29;99464.20;1685435;84;20960;-72
2021/08/06 01:23:49;;;;;;;14.87;11.90;;;;;;;22.32;66.38;99462.27;1704407;84;21012;-72
2021/08/06 01:26:19;;;;;;;15.72;11.80;;;;;;;22.33;66.45;99469.30;1678596;84;21103;-72
2021/08/06 01:29:00;;;;;;;14.85;11.70;;;;;;;22.33;66.42;99471.45;1709087;82;21055;-72
2021/08/06 01:31:29;;;;;;;15.90;12.20;;;;;;;22.33;66.44;99458.53;1706102;81;21539;-72
2021/08/06 01:34:03;;;;;;;17.82;11.50;;;;;;;22.32;66.46;99460.40;1646803;87;21020;-72
2021/08/06 01:36:30;;;;;;;15.75;11.70;;;;;;;22.30;66.51;99456.29;1696940;83;21023;-72
2021/08/06 01:38:57;;;;;;;14.43;11.70;;;;;;;22.27;66.58;99440.87;1696108;82;21026;-72
2021/08/06 01:41:46;;;;;;;15.65;12.15;;;;;;;22.26;66.66;99445.13;1674831;84;21047;-72
2021/08/06 01:44:28;;;;;;;17.15;12.35;;;;;;;22.24;66.68;99452.08;1696990;82;21874;-72
2021/08/06 01:47:17;;;;;;;17.92;12.23;;;;;;;22.24;66.84;99450.73;1702597;82;21348;-72
2021/08/06 01:49:51;;;;;;;20.12;12.58;;;;;;;22.23;66.94;99441.55;1714722;82;21383;-72
2021/08/06 01:52:29;;;;;;;15.98;12.85;;;;;;;22.22;67.04;99441.24;1689575;84;21024;-72
2021/08/06 01:55:01;;;;;;;16.80;12.55;;;;;;;22.22;67.12;99423.23;1688087;83;20962;-72
2021/08/06 01:57:27;;;;;;;16.05;12.70;;;;;;;22.24;67.19;99405.52;1702131;82;22482;-72
2021/08/06 01:59:54;;;;;;;14.75;12.68;;;;;;;22.24;67.28;99408.22;1717766;82;21409;-72
2021/08/06 02:02:21;;;;;;;16.35;12.60;;;;;;;22.21;67.34;99404.11;1704074;84;21065;-73
2021/08/06 02:04:47;;;;;;;15.98;12.63;;;;;;;22.21;67.39;99405.45;1706212;82;21043;-72
2021/08/06 02:07:16;;;;;;;15.03;11.73;;;;;;;22.21;67.34;99408.14;1698417;84;21583;-72
2021/08/06 02:09:44;;;;;;;15.78;12.23;;;;;;;22.19;67.37;99403.48;1715098;83;21506;-72
2021/08/06 02:12:13;;;;;;;17.25;12.63;;;;;;;22.14;67.45;99404.69;1679432;83;21959;-73
2021/08/06 02:14:48;;;;;;;16.73;12.07;;;;;;;22.03;67.56;99399.99;1703362;82;21028;-72
2021/08/06 02:17:15;;;;;;;14.75;12.05;;;;;;;21.97;67.68;99408.41;1676978;84;21083;-72
2021/08/06 02:19:44;;;;;;;19.60;12.37;;;;;;;21.92;67.69;99399.36;1702901;84;20961;-72
2021/08/06 02:22:13;;;;;;;15.23;12.18;;;;;;;21.88;67.72;99390.08;1709195;82;22237;-72
2021/08/06 02:24:42;;;;;;;16.52;11.85;;;;;;;21.85;67.72;99390.00;1692412;83;21045;-72
2021/08/06 02:27:12;;;;;;;15.23;11.60;;;;;;;21.81;67.85;99391.98;1674544;83;21032;-74
2021/08/06 02:29:40;;;;;;;15.13;11.60;;;;;;;21.76;67.91;99381.90;1696126;83;21495;-72
2021/08/06 02:32:09;;;;;;;15.63;11.83;;;;;;;21.69;68.00;99387.31;1693256;84;21082;-72
2021/08/06 02:34:36;;;;;;;13.85;11.55;;;;;;;21.63;68.10;99388.20;1685671;83;22221;-72
2021/08/06 02:37:03;;;;;;;17.65;12.55;;;;;;;21.61;68.21;99388.92;1692192;83;21009;-72
2021/08/06 02:39:34;;;;;;;16.80;12.47;;;;;;;21.62;68.49;99386.56;1678359;83;21064;-72
2021/08/06 02:42:02;;;;;;;16.12;12.53;;;;;;;21.63;68.62;99386.04;1666553;84;21031;-73
2021/08/06 02:44:29;;;;;;;17.05;12.82;;;;;;;21.64;68.91;99388.50;1699107;84;21132;-72
2021/08/06 02:46:57;;;;;;;14.78;12.28;;;;;;;21.64;69.19;99389.84;1711651;82;20949;-72
2021/08/06 02:49:24;;;;;;;15.35;12.80;;;;;;;21.62;69.48;99395.14;1678245;84;21017;-72
2021/08/06 02:51:51;;;;;;;15.18;11.90;;;;;;;21.59;69.71;99388.31;1701475;83;20993;-72
2021/08/06 02:54:18;;;;;;;14.40;12.20;;;;;;;21.56;69.99;99396.00;1699782;83;21017;-72
2021/08/06 02:56:45;;;;;;;16.87;12.10;;;;;;;21.52;70.23;99391.59;1664759;86;20978;-72
2021/08/06 02:59:12;;;;;;;15.58;12.43;;;;;;;21.51;70.59;99395.29;1711746;83;22436;-72
2021/08/06 03:01:39;;;;;;;17.45;12.73;;;;;;;21.52;70.93;99409.06;1665322;84;21577;-72
2021/08/06 03:04:06;;;;;;;15.35;12.75;;;;;;;21.53;71.28;99408.02;1701562;83;21437;-72
2021/08/06 03:06:34;;;;;;;15.93;12.78;;;;;;;21.53;71.58;99413.39;1682905;83;20973;-72
2021/08/06 03:09:01;;;;;;;17.25;12.63;;;;;;;21.51;71.82;99407.91;1692354;83;21103;-73
2021/08/06 03:11:29;;;;;;;16.45;12.37;;;;;;;21.51;72.04;99402.53;1677699;84;21036;-72
2021/08/06 03:13:56;;;;;;;15.28;12.47;;;;;;;21.52;72.29;99402.34;1689526;84;21095;-71
2021/08/06 03:16:23;;;;;;;19.50;13.08;;;;;;;21.54;72.42;99400.25;1692584;83;21533;-72
2021/08/06 03:18:52;;;;;;;21.02;13.32;;;;;;;21.59;72.53;99392.88;1712657;83;21017;-72
2021/08/06 03:21:19;;;;;;;22.17;13.62;;;;;;;21.63;72.63;99389.55;1690914;84;21064;-71
2021/08/06 03:23:46;;;;;;;16.85;12.80;;;;;;;21.69;72.64;99376.56;1675210;83;21832;-72
2021/08/06 03:26:13;;;;;;;18.62;12.50;;;;;;;21.71;72.81;99381.72;1693381;83;20927;-71
2021/08/06 03:28:41;;;;;;;18.92;13.05;;;;;;;21.77;72.92;99384.06;1687434;85;21011;-72
2021/08/06 03:31:08;;;;;;;15.93;11.78;;;;;;;21.79;72.91;99384.66;1675575;85;20968;-71
2021/08/06 03:33:34;;;;;;;14.83;12.20;;;;;;;21.80;72.94;99384.97;1677740;84;20981;-71
2021/08/06 03:36:04;;;;;;;17.12;12.23;;;;;;;21.81;72.99;99382.58;1686646;84;21032;-72
2021/08/06 03:38:31;;;;;;;15.95;11.60;;;;;;;21.84;73.00;99372.75;1674969;84;21087;-71
2021/08/06 03:40:58;;;;;;;16.32;12.60;;;;;;;21.88;72.99;99360.50;1703756;84;21723;-71
2021/08/06 03:43:25;;;;;;;16.97;12.53;;;;;;;21.92;72.94;99361.20;1678560;84;21386;-71
2021/08/06 03:45:51;;;;;;;16.00;11.97;;;;;;;22.04;72.74;99359.13;1683062;84;21012;-72
2021/08/06 03:48:19;;;;;;;15.65;12.30;;;;;;;22.09;72.64;99362.00;1702547;83;22172;-72
2021/08/06 03:50:46;;;;;;;19.25;12.20;;;;;;;22.13;72.56;99360.01;1680361;84;20967;-72
2021/08/06 03:53:13;;;;;;;17.98;11.57;;;;;;;22.15;72.52;99355.75;1663285;85;21071;-71
2021/08/06 03:55:40;;;;;;;15.50;10.95;;;;;;;22.19;72.42;99343.48;1678241;84;21007;-72
2021/08/06 03:58:08;;;;;;;16.23;11.10;;;;;;;22.22;72.25;99332.31;1700216;83;21360;-72
2021/08/06 04:00:38;;;;;;;16.35;11.15;;;;;;;22.25;72.05;99330.50;1691862;84;22833;-72
2021/08/06 04:03:06;;;;;;;19.92;11.60;;;;;;;22.26;71.91;99323.55;1697977;83;20956;-72
2021/08/06 04:05:35;;;;;;;15.00;10.78;;;;;;;22.26;71.83;99310.62;1688725;83;21021;-73
2021/08/06 04:08:09;;;;;;;15.13;10.82;;;;;;;22.28;71.81;99296.42;1676962;84;21037;-72
2021/08/06 04:10:39;;;;;;;12.75;10.23;;;;;;;22.29;71.67;99287.31;1700539;83;21098;-72
2021/08/06 04:13:08;;;;;;;16.40;10.08;;;;;;;22.30;71.43;99253.19;1697100;83;21430;-72
2021/08/06 04:15:36;;;;;;;11.83;9.38;;;;;;;22.30;71.21;99233.83;1692992;83;21284;-73
2021/08/06 04:18:02;;;;;;;14.15;11.20;;;;;;;22.33;71.07;99232.03;1705273;83;21049;-72
2021/08/06 04:20:29;;;;;;;14.05;10.45;;;;;;;22.35;70.94;99219.69;1692502;83;21556;-72
2021/08/06 04:22:56;;;;;;;14.60;10.58;;;;;;;22.36;70.76;99196.59;1688872;83;21452;-70
2021/08/06 04:25:23;;;;;;;14.38;10.30;;;;;;;22.39;70.60;99184.55;1700897;83;22223;-70
2021/08/06 04:27:50;;;;;;;16.60;10.90;;;;;;;22.40;70.44;99170.08;1713151;83;21032;-70
2021/08/06 04:30:16;;;;;;;15.80;11.05;;;;;;;22.41;70.37;99150.19;1685851;84;20965;-75
2021/08/06 04:32:43;;;;;;;24.70;14.50;;;;;;;22.42;70.29;99123.58;1700094;83;21008;-73
2021/08/06 04:35:10;;;;;;;33.83;17.17;;;;;;;22.45;70.23;99121.77;1690298;83;21075;-73
2021/08/06 04:37:46;;;;;;;32.88;16.00;;;;;;;22.47;70.12;99121.00;1703422;83;22470;-74
2021/08/06 04:40:14;;;;;;;32.10;16.97;;;;;;;22.48;70.14;99108.66;1675847;85;20956;-75
2021/08/06 04:42:41;;;;;;;29.20;16.35;;;;;;;22.49;70.27;99087.45;1693467;83;21435;-73
2021/08/06 04:45:10;;;;;;;25.15;15.48;;;;;;;22.51;70.43;99049.55;1699516;83;21280;-73
2021/08/06 04:47:49;;;;;;;21.10;13.65;;;;;;;22.54;70.55;99016.79;1691890;83;21072;-73
2021/08/06 04:50:19;;;;;;;17.87;13.30;;;;;;;22.58;70.59;99051.59;1708775;83;21822;-72
2021/08/06 04:52:46;;;;;;;17.05;12.37;;;;;;;22.59;70.62;99076.13;1690810;83;20969;-72
2021/08/06 04:55:14;;;;;;;15.10;11.83;;;;;;;22.61;70.68;99082.09;1688100;83;21068;-73
2021/08/06 04:57:43;;;;;;;15.65;12.28;;;;;;;22.65;70.70;99084.60;1701101;83;21439;-71
2021/08/06 05:00:11;;;;;;;14.75;11.40;;;;;;;22.66;70.61;99094.84;1704612;83;21096;-72
2021/08/06 05:02:38;;;;;;;15.60;12.05;;;;;;;22.69;70.49;99102.48;1703085;83;21951;-72
2021/08/06 05:05:05;;;;;;;23.10;11.75;;;;;;;22.71;70.41;99101.19;1699708;83;20953;-72
2021/08/06 05:07:32;;;;;;;17.30;11.43;;;;;;;22.73;70.39;99095.04;1705094;82;21465;-70
2021/08/06 05:09:59;;;;;;;15.70;10.95;;;;;;;22.76;70.39;99102.64;1689231;83;21087;-72
2021/08/06 05:12:26;;;;;;;13.30;11.33;;;;;;;22.81;70.46;99096.05;1689829;83;21040;-72
2021/08/06 05:14:53;;;;;;;19.55;11.22;;;;;;;22.87;70.56;99113.16;1688048;84;21901;-73
2021/08/06 05:17:20;;;;;;;18.27;12.07;;;;;;;22.91;70.62;99126.47;1676640;84;21117;-73
2021/08/06 05:19:48;;;;;;;20.75;12.98;;;;;;;22.94;70.66;99111.72;1677390;84;21024;-72
2021/08/06 05:22:15;;;;;;;16.15;11.68;;;;;;;23.01;70.69;99123.20;1675977;84;20991;-72
2021/08/06 05:24:41;;;;;;;17.07;11.88;;;;;;;23.04;70.63;99132.16;1651897;85;21040;-70
2021/08/06 05:27:09;;;;;;;15.35;11.25;;;;;;;23.08;70.61;99137.39;1655541;85;22640;-73
2021/08/06 05:29:35;;;;;;;21.12;12.37;;;;;;;23.14;70.64;99139.95;1706342;83;21093;-73
2021/08/06 05:32:03;;;;;;;14.18;11.65;;;;;;;23.19;70.65;99150.03;1670720;85;21029;-72
2021/08/06 05:34:29;;;;;;;17.95;11.50;;;;;;;23.25;70.60;99149.61;1692250;84;21374;-72
2021/08/06 05:36:56;;;;;;;15.00;10.95;;;;;;;23.30;70.48;99155.13;1660338;86;21025;-72
2021/08/06 05:39:23;;;;;;;15.38;11.57;;;;;;;23.34;70.20;99162.50;1674932;85;22207;-72
2021/08/06 05:41:49;;;;;;;14.63;10.98;;;;;;;23.42;69.94;99171.59;1717021;83;21040;-71
2021/08/06 05:44:16;;;;;;;13.45;11.33;;;;;;;23.53;69.64;99173.16;1717233;83;21468;-71
2021/08/06 05:46:43;;;;;;;13.65;11.10;;;;;;;23.61;69.33;99177.70;1717251;83;21029;-72
2021/08/06 05:49:10;;;;;;;19.50;10.70;;;;;;;23.70;68.98;99183.56;1684994;82;21052;-71
2021/08/06 05:51:38;;;;;;;18.23;10.38;;;;;;;23.80;68.73;99187.01;1673303;85;22229;-73
2021/08/06 05:54:04;;;;;;;14.87;10.32;;;;;;;23.90;68.48;99188.58;1675317;85;20969;-74
2021/08/06 05:56:32;;;;;;;15.28;10.48;;;;;;;23.99;68.21;99192.02;1670395;86;20997;-73
2021/08/06 05:58:59;;;;;;;14.23;10.58;;;;;;;24.12;67.91;99194.15;1672421;84;21074;-72
2021/08/06 06:01:26;;;;;;;14.93;10.15;;;;;;;24.23;67.85;99205.47;1644672;87;20973;-72
2021/08/06 06:03:57;;;;;;;11.20;10.03;;;;;;;24.32;67.39;99222.95;1672623;85;22440;-72
2021/08/06 06:06:28;;;;;;;15.43;10.55;;;;;;;24.39;66.82;99220.91;1648295;86;21095;-72
2021/08/06 06:08:55;;;;;;;18.23;10.53;;;;;;;24.45;66.72;99236.16;1661658;86;20977;-73
2021/08/06 06:11:22;;;;;;;27.05;11.57;;;;;;;24.53;66.29;99232.27;1661876;85;21041;-72
2021/08/06 06:13:48;;;;;;;22.67;10.60;;;;;;;24.61;65.06;99228.34;1690639;85;21460;-72
2021/08/06 06:16:15;;;;;;;22.17;11.65;;;;;;;24.68;63.97;99227.14;1690382;85;22961;-72
2021/08/06 06:18:42;;;;;;;21.30;11.20;;;;;;;24.71;63.61;99232.08;1666392;85;21009;-71
2021/08/06 06:21:10;;;;;;;20.20;12.15;;;;;;;24.75;63.31;99245.91;1641278;86;21189;-72
2021/08/06 06:23:37;;;;;;;30.17;13.68;;;;;;;24.76;62.98;99255.11;1667270;85;21021;-71
2021/08/06 06:26:06;;;;;;;29.65;12.75;;;;;;;24.82;63.10;99270.90;1685883;85;21372;-72
2021/08/06 06:28:33;;;;;;;12.90;9.33;;;;;;;24.87;63.38;99278.27;1683026;85;21828;-72
2021/08/06 06:31:02;;;;;;;14.90;8.80;;;;;;;24.90;63.16;99292.13;1652728;85;21012;-72
2021/08/06 06:33:29;;;;;;;14.47;8.00;;;;;;;24.90;63.08;99297.53;1708102;84;21686;-72
2021/08/06 06:35:56;;;;;;;11.15;8.25;;;;;;;24.89;62.96;99291.80;1674798;85;21477;-71
2021/08/06 06:38:23;;;;;;;13.93;8.70;;;;;;;24.90;63.10;99306.98;1685430;85;21464;-71
2021/08/06 06:40:49;;;;;;;11.03;7.53;;;;;;;24.92;63.25;99314.31;1677664;85;22232;-71
2021/08/06 06:43:18;;;;;;;10.00;7.12;;;;;;;24.96;63.19;99333.01;1672298;85;20954;-71
2021/08/06 06:45:44;;;;;;;11.60;7.20;;;;;;;24.96;62.89;99327.61;1701224;83;20977;-71
2021/08/06 06:48:11;;;;;;;7.55;6.62;;;;;;;24.91;63.05;99332.93;1670314;85;21004;-71
2021/08/06 06:50:39;;;;;;;9.68;7.12;;;;;;;24.96;62.87;99349.22;1747587;81;20949;-70
2021/08/06 06:53:06;;;;;;;13.90;8.95;;;;;;;24.96;63.29;99355.97;1743894;81;22145;-71
2021/08/06 06:55:32;;;;;;;13.53;9.85;;;;;;;24.96;63.76;99372.18;1744087;82;20991;-76
2021/08/06 06:58:00;;;;;;;17.80;10.32;;;;;;;24.85;64.28;99378.44;1742272;82;21511;-70
2021/08/06 07:00:30;;;;;;;13.25;9.15;;;;;;;24.81;64.67;99378.64;1742578;82;21000;-71
2021/08/06 07:02:57;;;;;;;12.80;9.30;;;;;;;24.73;64.75;99370.91;1706397;83;20959;-70
2021/08/06 07:05:24;;;;;;;11.83;7.92;;;;;;;24.64;65.00;99380.44;1722607;83;22260;-70
2021/08/06 07:07:52;;;;;;;14.70;7.55;;;;;;;24.54;64.79;99383.20;1741564;82;20994;-70
2021/08/06 07:10:19;;;;;;;9.10;6.78;;;;;;;24.43;64.67;99370.55;1714858;82;20993;-70
2021/08/06 07:12:46;;;;;;;8.10;6.72;;;;;;;24.35;64.51;99374.95;1749706;81;20959;-71
2021/08/06 07:15:14;;;;;;;8.90;6.30;;;;;;;24.33;64.61;99386.52;1748740;81;21226;-71
2021/08/06 07:17:41;;;;;;;7.72;6.30;;;;;;;24.32;64.36;99377.28;1743805;82;21933;-71
2021/08/06 07:20:10;;;;;;;9.85;5.50;;;;;;;24.27;64.53;99374.73;1743721;82;20926;-72
2021/08/06 07:22:37;;;;;;;9.73;5.40;;;;;;;24.21;63.87;99362.70;1743643;82;20953;-71
2021/08/06 07:25:09;;;;;;;15.58;5.92;;;;;;;24.14;63.78;99377.69;1742624;81;20977;-74
2021/08/06 07:27:38;;;;;;;9.48;5.55;;;;;;;24.08;64.35;99352.16;1707956;83;20996;-74
2021/08/06 07:30:06;;;;;;;7.83;5.95;;;;;;;23.99;65.02;99349.80;1691285;84;21811;-72
2021/08/06 07:32:34;;;;;;;10.68;5.70;;;;;;;23.93;65.67;99328.33;1717114;83;21013;-76
2021/08/06 07:35:01;;;;;;;7.60;5.42;;;;;;;23.77;65.88;99329.86;1701835;84;21002;-75
2021/08/06 07:37:27;;;;;;;9.38;5.53;;;;;;;23.62;66.04;99325.44;1694733;83;21103;-73
2021/08/06 07:39:54;;;;;;;7.37;5.55;;;;;;;23.50;66.92;99330.78;1697999;83;20976;-72
2021/08/06 07:42:22;;;;;;;7.33;5.10;;;;;;;23.35;67.48;99291.30;1680369;84;22252;-72
2021/08/06 07:44:49;;;;;;;7.53;5.40;;;;;;;23.23;67.72;99293.16;1704386;83;20944;-72
2021/08/06 07:47:15;;;;;;;9.08;4.90;;;;;;;23.14;68.08;99272.45;1678321;84;20996;-72
2021/08/06 07:49:42;;;;;;;7.35;5.53;;;;;;;23.07;68.07;99263.16;1677077;84;21575;-72
2021/08/06 07:52:11;;;;;;;9.48;5.22;;;;;;;23.03;68.09;99272.73;1660436;85;21428;-72
2021/08/06 07:54:38;;;;;;;11.78;5.87;;;;;;;23.00;68.37;99271.03;1705330;84;21857;-72
2021/08/06 07:57:06;;;;;;;8.90;6.58;;;;;;;22.99;68.85;99239.77;1705304;84;21012;-73
2021/08/06 07:59:33;;;;;;;8.85;6.05;;;;;;;23.06;69.33;99246.67;1704825;84;21064;-74
2021/08/06 08:01:59;;;;;;;13.48;6.80;;;;;;;23.18;69.01;99251.29;1704378;84;21106;-75
2021/08/06 08:04:26;;;;;;;11.75;6.60;;;;;;;23.26;68.71;99248.23;1703215;84;20960;-75
2021/08/06 08:06:54;;;;;;;22.90;11.95;;;;;;;23.33;68.28;99240.34;1681116;85;20963;-73
2021/08/06 08:09:23;;;;;;;37.30;17.45;;;;;;;23.40;67.86;99238.91;1720654;82;21068;-73
2021/08/06 08:11:49;;;;;;;38.90;17.90;;;;;;;23.46;67.26;99254.68;1709135;83;21503;-73
2021/08/06 08:14:16;;;;;;;39.00;17.45;;;;;;;23.47;66.60;99263.88;1719420;82;20977;-73
2021/08/06 08:16:44;;;;;;;23.75;11.53;;;;;;;23.47;66.26;99261.18;1728945;82;21056;-72
2021/08/06 08:19:12;;;;;;;23.30;11.28;;;;;;;23.46;65.85;99243.90;1724019;81;21848;-73
2021/08/06 08:21:38;;;;;;;18.45;9.13;;;;;;;23.48;65.52;99247.17;1704144;84;20965;-73
2021/08/06 08:24:06;;;;;;;13.65;8.50;;;;;;;23.48;65.46;99248.00;1704504;84;21079;-73
2021/08/06 08:26:34;;;;;;;12.05;6.72;;;;;;;23.51;65.34;99248.05;1678054;85;21016;-73
2021/08/06 08:29:01;;;;;;;8.45;5.22;;;;;;;23.53;65.38;99256.19;1684378;85;21027;-73
2021/08/06 08:31:28;;;;;;;12.05;5.42;;;;;;;23.58;65.35;99253.63;1734889;82;21846;-73
2021/08/06 08:33:55;;;;;;;7.85;5.05;;;;;;;23.65;65.49;99244.13;1725387;82;20993;-73
2021/08/06 08:36:22;;;;;;;10.30;4.85;;;;;;;23.77;65.07;99248.16;1717051;83;21012;-73
2021/08/06 08:38:49;;;;;;;7.62;4.50;;;;;;;23.93;64.93;99236.14;1645458;87;21060;-72
2021/08/06 08:41:16;;;;;;;9.10;4.65;;;;;;;24.17;64.50;99235.55;1705839;83;21052;-73
2021/08/06 08:43:43;;;;;;;6.87;3.95;;;;;;;24.48;64.11;99238.91;1712502;83;22216;-72
2021/08/06 08:46:12;;;;;;;6.83;4.28;;;;;;;24.85;63.44;99227.19;1703928;84;21503;-73
2021/08/06 08:48:38;;;;;;;7.10;4.22;;;;;;;25.26;62.05;99206.30;1706921;84;21317;-74
2021/08/06 08:51:05;;;;;;;9.03;4.22;;;;;;;25.58;60.77;99192.48;1710705;83;21009;-73
2021/08/06 08:53:34;;;;;;;5.50;3.87;;;;;;;25.88;59.35;99192.66;1697742;84;21098;-72
2021/08/06 08:56:01;;;;;;;5.97;3.70;;;;;;;26.16;57.70;99184.36;1696520;83;21776;-72
2021/08/06 08:58:28;;;;;;;5.78;3.50;;;;;;;26.40;57.09;99175.45;1668195;83;21078;-74
2021/08/06 09:00:57;;;;;;;5.67;3.45;;;;;;;26.63;54.82;99162.14;1686648;83;21022;-72
2021/08/06 09:03:42;;;;;;;5.55;3.30;;;;;;;26.87;53.94;99164.00;1721078;82;21025;-72
2021/08/06 09:06:10;;;;;;;5.62;3.22;;;;;;;27.09;53.52;99149.84;1708452;82;21040;-72
2021/08/06 09:08:39;;;;;;;5.05;3.20;;;;;;;27.35;52.51;99146.78;1689144;83;21842;-72
2021/08/06 09:11:32;;;;;;;6.03;2.90;;;;;;;27.53;51.11;99142.84;1702651;83;21484;-71
2021/08/06 09:14:20;;;;;;;6.37;3.33;;;;;;;27.63;51.05;99136.11;1653249;85;21011;-71
2021/08/06 09:17:00;;;;;;;7.35;3.17;;;;;;;27.70;48.41;99122.86;1685896;83;20999;-71
2021/08/06 09:19:36;;;;;;;7.03;3.22;;;;;;;27.65;49.29;99113.62;1704001;82;20999;-71
2021/08/06 09:22:26;;;;;;;5.20;2.85;;;;;;;27.64;49.27;99080.77;1709057;82;21811;-73
2021/08/06 09:25:04;;;;;;;15.43;3.67;;;;;;;27.63;48.40;99057.98;1710329;82;21008;-72
2021/08/06 09:27:32;;;;;;;5.28;3.02;;;;;;;27.62;48.03;99053.64;1690604;84;21067;-73
2021/08/06 09:30:00;;;;;;;6.72;3.17;;;;;;;27.65;46.45;99049.88;1695972;83;20990;-73
2021/08/06 09:32:27;;;;;;;7.53;3.00;;;;;;;27.61;45.44;99054.19;1706464;84;20974;-72
2021/08/06 09:34:53;;;;;;;20.57;3.62;;;;;;;27.57;46.55;99067.17;1698891;83;22254;-73
2021/08/06 09:37:25;;;;;;;7.25;2.92;;;;;;;27.54;45.57;99071.77;1709601;83;21048;-74
2021/08/06 09:39:55;;;;;;;8.25;2.95;;;;;;;27.52;45.53;99067.98;1705455;83;21020;-71
2021/08/06 09:42:32;;;;;;;8.58;2.87;;;;;;;27.54;45.66;99066.35;1722672;80;21615;-70
2021/08/06 09:45:15;;;;;;;6.62;2.95;;;;;;;27.62;45.89;99060.42;1754206;80;21098;-72
2021/08/06 09:47:44;;;;;;;6.30;2.60;;;;;;;27.74;45.14;99052.90;1743268;82;21864;-72
2021/08/06 09:50:17;;;;;;;4.83;2.47;;;;;;;27.86;44.33;99039.91;1764768;80;21040;-72
2021/08/06 09:52:47;;;;;;;6.00;3.00;;;;;;;27.98;44.38;99027.98;1757652;80;21024;-71
2021/08/06 09:55:31;;;;;;;8.10;3.08;;;;;;;28.09;44.75;99016.09;1744455;80;21150;-72
2021/08/06 09:58:00;;;;;;;9.48;3.05;;;;;;;28.20;44.11;99020.45;1751736;80;20992;-71
2021/08/06 10:00:27;;;;;;;8.53;3.50;;;;;;;28.26;44.04;99034.82;1761768;80;22665;-72
2021/08/06 10:02:55;;;;;;;15.60;5.47;;;;;;;28.30;43.25;99043.56;1749982;80;21539;-74
2021/08/06 10:05:24;;;;;;;12.28;5.72;;;;;;;28.34;43.93;99046.00;1746488;80;21518;-75
2021/08/06 10:07:54;;;;;;;14.55;6.03;;;;;;;28.38;44.50;99049.83;1741107;82;21432;-72
2021/08/06 10:10:31;;;;;;;13.15;5.25;;;;;;;28.40;43.98;99061.22;1711285;81;21048;-71
2021/08/06 10:13:00;;;;;;;17.85;5.80;;;;;;;28.39;43.66;99058.24;1731327;82;21881;-74
2021/08/06 10:15:27;;;;;;;19.30;6.72;;;;;;;28.41;43.57;99060.14;1746187;80;20957;-75
2021/08/06 10:17:55;;;;;;;16.35;5.47;;;;;;;28.40;42.37;99053.08;1752117;80;21060;-72
2021/08/06 10:20:24;;;;;;;17.02;4.55;;;;;;;28.42;43.16;99062.31;1761439;80;21000;-74
2021/08/06 10:22:52;;;;;;;11.38;3.70;;;;;;;28.46;43.90;99064.20;1734216;80;21478;-74
2021/08/06 10:25:19;;;;;;;13.93;3.85;;;;;;;28.48;43.58;99066.13;1740247;82;21785;-75
2021/08/06 10:27:47;;;;;;;17.27;4.70;;;;;;;28.50;44.04;99068.02;1751716;80;20992;-74
2021/08/06 10:30:29;;;;;;;17.20;4.58;;;;;;;28.59;43.53;99066.94;1752488;80;20979;-74
2021/08/06 10:33:25;;;;;;;20.48;4.45;;;;;;;28.71;43.32;99061.23;1760800;80;20994;-74
2021/08/06 10:36:04;;;;;;;20.40;4.90;;;;;;;28.95;44.24;99065.06;1763525;80;22306;-75
2021/08/06 10:38:44;;;;;;;21.97;4.25;;;;;;;29.25;42.72;99060.66;1745436;81;21898;-76
2021/08/06 10:41:19;;;;;;;26.52;5.87;;;;;;;29.50;43.34;99064.66;1740420;82;21017;-75
2021/08/06 10:44:05;;;;;;;27.17;4.12;;;;;;;29.77;42.02;99056.67;1747800;80;21005;-74
2021/08/06 10:47:06;;;;;;;13.03;3.80;;;;;;;30.04;41.74;99050.27;1713925;82;21025;-75
2021/08/06 10:49:33;;;;;;;17.75;4.37;;;;;;;30.35;41.56;99046.00;1752394;80;21043;-73
2021/08/06 10:52:19;;;;;;;27.82;4.92;;;;;;;30.68;42.08;99039.75;1735524;80;22826;-71
2021/08/06 10:54:48;;;;;;;10.53;3.75;;;;;;;30.96;39.88;99042.77;1737741;82;21055;-75
2021/08/06 10:57:24;;;;;;;8.03;3.45;;;;;;;31.22;41.07;99037.35;1741896;82;21456;-75
2021/08/06 10:59:53;;;;;;;7.95;3.50;;;;;;;31.52;40.03;99034.00;1744663;82;21042;-73
2021/08/06 11:02:38;;;;;;;15.10;3.02;;;;;;;31.78;39.65;99022.23;1740264;82;21018;-72
2021/08/06 11:05:30;;;;;;;5.83;2.77;;;;;;;32.03;38.93;99018.31;1724916;82;21827;-72
2021/08/06 11:08:00;;;;;;;7.37;3.27;;;;;;;32.26;38.91;99011.97;1743011;80;21064;-72
2021/08/06 11:10:51;;;;;;;11.10;3.20;;;;;;;32.55;39.24;99004.96;1746456;80;21064;-75
2021/08/06 11:13:48;;;;;;;4.65;2.87;;;;;;;32.70;37.72;98999.77;1745654;81;21091;-74
2021/08/06 11:16:15;;;;;;;6.85;2.70;;;;;;;32.63;37.12;98993.91;1731764;82;21056;-73
2021/08/06 11:18:44;;;;;;;10.85;2.90;;;;;;;32.48;36.92;99004.53;1736662;81;22254;-75
2021/08/06 11:21:11;;;;;;;10.15;2.90;;;;;;;32.32;37.06;99001.78;1689374;83;20994;-73
2021/08/06 11:23:38;;;;;;;6.22;3.10;;;;;;;32.18;37.48;99000.34;1737283;82;21040;-73
2021/08/06 11:26:11;;;;;;;6.45;3.10;;;;;;;32.02;37.69;99006.58;1744820;82;20987;-72
2021/08/06 11:28:39;;;;;;;7.10;3.42;;;;;;;31.87;38.14;99002.73;1747348;80;21056;-73
2021/08/06 11:31:18;;;;;;;5.08;3.30;;;;;;;31.71;38.68;99000.72;1741816;80;22749;-73
2021/08/06 11:33:44;;;;;;;9.45;3.80;;;;;;;31.58;38.99;98996.00;1738438;82;21102;-73